Time;durP1;ratioP1;P1;durP2;ratioP2;P2;SDS_P1;SDS_P2;PMS_P1;PMS_P2;Temp;Humidity;BMP_temperature;BMP_pressure;BME280_temperature;BME280_humidity;BME280_pressure;Samples;Min_cycle;Max_cycle;Signal;HPM_P1;HPM_P2
2022/04/17 00:01:50;;;;;;;30.17;19.10;;;;;;;3.27;100.00;103191.38;10345994;28;20030;-80
2022/04/17 00:06:50;;;;;;;31.88;18.58;;;;;;;3.19;100.00;103185.81;10347973;28;20059;-80
2022/04/17 00:11:51;;;;;;;27.30;16.65;;;;;;;3.08;100.00;103180.53;10347217;28;20039;-80
2022/04/17 00:16:51;;;;;;;34.08;17.63;;;;;;;3.01;100.00;103181.13;10346704;28;20054;-79
2022/04/17 00:21:51;;;;;;;21.13;14.10;;;;;;;2.95;100.00;103181.72;10345934;28;20038;-80
2022/04/17 00:26:52;;;;;;;22.52;14.43;;;;;;;2.62;100.00;103124.13;10343574;28;20046;-79
2022/04/17 00:31:53;;;;;;;21.95;12.75;;;;;;;2.76;100.00;103171.75;10344506;28;20061;-80
2022/04/17 00:36:53;;;;;;;20.90;12.90;;;;;;;2.71;100.00;103162.31;10346107;28;20049;-80
2022/04/17 00:41:54;;;;;;;21.25;13.40;;;;;;;2.70;100.00;103150.56;10344891;28;20053;-79
2022/04/17 00:46:54;;;;;;;17.70;11.60;;;;;;;2.71;100.00;103148.69;10343255;28;20089;-79
2022/04/17 00:51:55;;;;;;;15.55;10.85;;;;;;;2.73;100.00;103143.97;10328531;28;20123;-80
2022/04/17 00:56:55;;;;;;;21.02;11.18;;;;;;;2.69;100.00;103153.44;10346538;28;20042;-80
2022/04/17 01:01:56;;;;;;;14.55;10.30;;;;;;;2.56;100.00;103145.59;10346741;28;20066;-79
2022/04/17 01:06:56;;;;;;;15.07;9.07;;;;;;;2.42;100.00;103130.59;10320143;28;20705;-79
2022/04/17 01:11:57;;;;;;;18.05;9.73;;;;;;;2.41;100.00;103147.91;10302579;28;20078;-79
2022/04/17 01:16:58;;;;;;;18.52;10.45;;;;;;;2.31;100.00;103134.31;10288095;28;20041;-79
2022/04/17 01:21:58;;;;;;;17.27;9.65;;;;;;;2.01;100.00;103097.28;10304489;28;20023;-80
2022/04/17 01:27:02;;;;;;;15.93;10.20;;;;;;;2.27;100.00;103153.78;10314997;28;20034;-80
2022/04/17 01:32:06;;;;;;;16.33;9.90;;;;;;;2.09;100.00;103132.75;10304353;28;20077;-80
2022/04/17 01:37:06;;;;;;;14.32;9.27;;;;;;;2.03;100.00;103136.03;10304419;28;20047;-79
2022/04/17 01:42:07;;;;;;;15.50;9.65;;;;;;;1.98;100.00;103130.16;10304512;28;20034;-79
2022/04/17 01:47:07;;;;;;;15.75;10.07;;;;;;;1.98;100.00;103127.44;10311164;28;20558;-80
2022/04/17 01:52:08;;;;;;;16.80;11.73;;;;;;;1.41;100.00;103043.94;10310168;28;20030;-79
2022/04/17 01:57:08;;;;;;;16.45;10.40;;;;;;;1.96;100.00;103135.75;10297981;28;20133;-79
2022/04/17 02:02:09;;;;;;;19.60;10.98;;;;;;;1.62;100.00;103070.09;10352286;28;20037;-79
2022/04/17 02:07:09;;;;;;;20.58;12.02;;;;;;;1.91;100.00;103113.56;10350794;28;20108;-80
2022/04/17 02:12:10;;;;;;;19.23;12.82;;;;;;;1.87;100.00;103124.88;10350216;28;20129;-79
2022/04/17 02:17:10;;;;;;;21.05;13.02;;;;;;;1.86;100.00;103123.16;10345453;28;20054;-79
2022/04/17 02:22:11;;;;;;;22.45;14.88;;;;;;;1.75;100.00;103114.13;10311066;28;20034;-79
2022/04/17 02:27:11;;;;;;;27.13;17.10;;;;;;;1.71;100.00;103115.41;10309734;28;20027;-79
2022/04/17 02:32:12;;;;;;;31.58;19.23;;;;;;;1.68;100.00;103110.28;10311129;28;20038;-79
2022/04/17 02:37:13;;;;;;;31.48;19.45;;;;;;;1.73;100.00;103107.97;10310954;28;20045;-79
2022/04/17 02:42:13;;;;;;;28.30;17.58;;;;;;;1.41;100.00;103060.22;10309613;28;20401;-79
2022/04/17 02:52:32;;;;;;;26.23;18.45;;;;;;;1.57;100.00;103102.22;10332709;28;20040;-80
2022/04/17 02:57:33;;;;;;;30.73;16.73;;;;;;;1.53;100.00;103108.94;10324214;28;20395;-79
2022/04/17 03:07:59;;;;;;;29.35;16.20;;;;;;;1.41;100.00;103103.63;10317839;28;20062;-79
2022/04/17 03:12:59;;;;;;;28.83;15.98;;;;;;;1.37;100.00;103101.34;10308420;28;20043;-80
2022/04/17 03:18:00;;;;;;;27.52;16.88;;;;;;;1.36;100.00;103111.31;10307500;28;20030;-80
2022/04/17 03:23:01;;;;;;;26.27;16.23;;;;;;;1.33;100.00;103116.19;10323480;28;20065;-79
2022/04/17 03:28:02;;;;;;;33.28;17.65;;;;;;;1.24;100.00;103101.59;10307550;28;20474;-79
2022/04/17 03:33:02;;;;;;;26.63;16.65;;;;;;;1.17;100.00;103090.41;10307309;28;20065;-78
2022/04/17 03:38:03;;;;;;;30.90;17.73;;;;;;;1.22;100.00;103098.16;10306430;28;20066;-78
2022/04/17 03:43:04;;;;;;;29.00;18.85;;;;;;;1.14;100.00;103095.28;10307827;28;20034;-78
2022/04/17 03:48:05;;;;;;;31.55;19.77;;;;;;;1.17;100.00;103111.28;10315332;28;20098;-78
2022/04/17 03:53:06;;;;;;;33.92;20.88;;;;;;;1.14;100.00;103114.28;10322768;28;20043;-78
2022/04/17 03:58:06;;;;;;;29.20;18.60;;;;;;;1.08;100.00;103107.53;10308787;28;20031;-78
2022/04/17 04:03:07;;;;;;;35.53;21.20;;;;;;;0.96;100.00;103101.34;10322599;28;20027;-79
2022/04/17 04:08:08;;;;;;;35.85;21.27;;;;;;;0.89;100.00;103094.75;10321165;28;20046;-78
2022/04/17 04:13:09;;;;;;;37.05;21.85;;;;;;;1.00;100.00;103105.50;10328528;28;20034;-78
2022/04/17 04:18:09;;;;;;;36.08;21.10;;;;;;;1.00;100.00;103096.50;10345737;28;20458;-78
2022/04/17 04:23:10;;;;;;;39.47;21.95;;;;;;;1.13;100.00;103088.97;10347346;28;20038;-78
2022/04/17 04:33:31;;;;;;;37.95;21.50;;;;;;;1.33;100.00;103087.19;10346675;28;20064;-77
2022/04/17 04:38:32;;;;;;;47.03;23.30;;;;;;;1.28;100.00;103069.59;10336489;28;20049;-78
2022/04/17 04:43:32;;;;;;;47.97;26.30;;;;;;;1.35;100.00;103077.06;10303573;28;20601;-78
2022/04/17 04:53:52;;;;;;;51.08;28.60;;;;;;;1.41;100.00;103071.06;10305427;28;20034;-78
2022/04/17 04:58:53;;;;;;;47.03;27.52;;;;;;;1.40;100.00;103069.34;10289165;28;20039;-78
2022/04/17 05:03:53;;;;;;;50.47;27.60;;;;;;;1.47;100.00;103064.22;10309789;28;20053;-78
2022/04/17 05:08:54;;;;;;;48.20;27.90;;;;;;;1.63;100.00;103079.94;10304524;28;20062;-78
2022/04/17 05:13:54;;;;;;;38.63;22.85;;;;;;;1.81;100.00;103072.81;10305797;28;20462;-77
2022/04/17 05:19:19;;;;;;;40.35;21.95;;;;;;;1.95;100.00;103071.53;10309158;28;20422;-78
2022/04/17 05:24:15;;;;;;;41.90;23.13;;;;;;;2.09;100.00;103067.53;10313760;28;20046;-78
2022/04/17 05:29:16;;;;;;;43.97;23.88;;;;;;;2.27;100.00;103070.34;10327985;28;20069;-79
2022/04/17 05:34:16;;;;;;;43.30;23.42;;;;;;;2.41;100.00;103082.66;10327814;28;20038;-78
2022/04/17 05:39:16;;;;;;;45.67;23.02;;;;;;;2.60;100.00;103077.19;10312421;28;20038;-78
2022/04/17 05:44:17;;;;;;;49.45;26.90;;;;;;;2.85;100.00;103082.94;10325357;28;20038;-77
2022/04/17 05:49:17;;;;;;;45.58;25.52;;;;;;;3.12;100.00;103067.66;10327524;28;20320;-77
2022/04/17 05:54:18;;;;;;;44.75;25.55;;;;;;;3.54;100.00;103078.03;10311614;28;20077;-78
2022/04/17 05:59:18;;;;;;;47.85;26.15;;;;;;;3.77;100.00;103059.38;10312130;28;20046;-78
2022/04/17 06:04:19;;;;;;;47.13;23.45;;;;;;;4.08;100.00;103059.81;10326552;28;20051;-78
2022/04/17 06:09:19;;;;;;;42.85;23.95;;;;;;;4.38;100.00;103057.63;10309986;28;20043;-78
2022/04/17 06:14:20;;;;;;;37.25;21.80;;;;;;;4.74;100.00;103054.81;10308140;28;20074;-77
2022/04/17 06:19:20;;;;;;;45.13;22.45;;;;;;;5.11;100.00;103072.75;10310566;28;20033;-77
2022/04/17 06:24:21;;;;;;;35.45;20.70;;;;;;;5.42;100.00;103056.63;10312007;28;20030;-77
2022/04/17 06:29:21;;;;;;;39.08;20.15;;;;;;;5.73;100.00;103051.41;10309835;28;20039;-77
2022/04/17 06:34:21;;;;;;;35.00;20.48;;;;;;;6.01;100.00;103053.84;10308274;28;20077;-77
2022/04/17 06:39:22;;;;;;;31.95;18.65;;;;;;;6.29;100.00;103054.34;10309970;28;20487;-77
2022/04/17 06:44:22;;;;;;;30.45;18.63;;;;;;;6.72;100.00;103043.13;10338566;28;20023;-78
2022/04/17 06:49:23;;;;;;;29.45;17.65;;;;;;;7.08;100.00;103041.63;10349481;28;20148;-77
2022/04/17 06:54:23;;;;;;;22.92;15.00;;;;;;;7.44;100.00;103053.97;10351279;28;20022;-78
2022/04/17 06:59:24;;;;;;;25.60;15.75;;;;;;;7.74;100.00;103052.25;10321751;28;20418;-78
2022/04/17 07:04:24;;;;;;;21.85;14.43;;;;;;;8.01;100.00;103047.25;10309104;28;20035;-78
2022/04/17 07:09:25;;;;;;;21.20;13.02;;;;;;;7.93;100.00;102985.06;10307498;28;20114;-77
2022/04/17 07:14:25;;;;;;;18.23;12.32;;;;;;;8.50;100.00;103029.50;10336120;28;20121;-77
2022/04/17 07:19:25;;;;;;;16.38;10.45;;;;;;;8.63;100.00;103014.06;10349479;28;20030;-77
2022/04/17 07:24:26;;;;;;;15.50;10.85;;;;;;;8.85;100.00;103023.25;10350045;28;20031;-77
2022/04/17 07:29:27;;;;;;;14.18;10.07;;;;;;;9.06;100.00;103011.47;10348619;28;20046;-77
2022/04/17 07:34:27;;;;;;;14.10;9.50;;;;;;;9.22;98.40;103006.81;10324537;28;20036;-78
2022/04/17 07:39:28;;;;;;;13.73;8.23;;;;;;;9.26;93.61;102992.50;10307680;28;20026;-77
2022/04/17 07:44:29;;;;;;;11.65;8.00;;;;;;;9.43;94.20;102992.25;10335470;28;20030;-78
2022/04/17 07:49:30;;;;;;;13.75;7.70;;;;;;;9.51;91.23;102997.63;10348337;28;20045;-78
2022/04/17 07:54:30;;;;;;;14.75;8.88;;;;;;;9.61;89.79;102983.53;10348621;28;20030;-78
2022/04/17 07:59:31;;;;;;;13.30;7.85;;;;;;;9.95;89.19;102991.06;10347831;28;20034;-78
2022/04/17 08:04:31;;;;;;;12.02;8.23;;;;;;;9.55;87.87;102883.47;10344382;28;20041;-77
2022/04/17 08:09:32;;;;;;;10.13;7.13;;;;;;;10.41;83.58;102976.00;10345330;28;20039;-78
2022/04/17 08:14:33;;;;;;;8.70;5.85;;;;;;;10.63;83.81;102977.63;10315605;28;20141;-77
2022/04/17 08:19:35;;;;;;;8.95;6.20;;;;;;;10.87;79.28;102961.63;10384225;28;20046;-78
2022/04/17 08:24:35;;;;;;;9.60;7.10;;;;;;;11.15;79.98;102957.91;10386096;28;20092;-77
2022/04/17 08:29:36;;;;;;;10.57;6.00;;;;;;;11.35;75.74;102946.91;10386323;28;20034;-78
2022/04/17 08:34:36;;;;;;;8.07;5.85;;;;;;;11.45;73.99;102934.44;10379914;28;20037;-78
2022/04/17 08:39:37;;;;;;;9.35;6.00;;;;;;;11.70;75.33;102942.13;10385789;28;20033;-79
2022/04/17 08:44:37;;;;;;;8.98;6.00;;;;;;;11.86;71.37;102932.53;10378510;28;20034;-79
2022/04/17 08:49:37;;;;;;;8.45;5.93;;;;;;;11.76;70.96;102877.81;10385917;28;20030;-78
2022/04/17 08:54:38;;;;;;;10.10;5.70;;;;;;;12.25;71.13;102915.13;10359248;28;20022;-77
2022/04/17 08:59:39;;;;;;;10.00;6.28;;;;;;;11.91;70.21;102803.06;10376542;28;20017;-78
2022/04/17 09:04:43;;;;;;;9.55;5.40;;;;;;;12.63;66.86;102886.75;10371419;28;20033;-78
2022/04/17 09:09:53;;;;;;;8.98;5.53;;;;;;;12.80;69.06;102900.06;10370573;28;20105;-77
2022/04/17 09:14:55;;;;;;;8.63;5.45;;;;;;;13.20;66.98;102880.50;10310499;28;20051;-77
2022/04/17 09:19:55;;;;;;;7.25;5.38;;;;;;;13.30;62.70;102862.34;10356805;28;20474;-79
2022/04/17 09:24:55;;;;;;;7.32;5.35;;;;;;;13.13;62.43;102790.13;10392753;28;20037;-79
2022/04/17 09:29:56;;;;;;;7.40;4.97;;;;;;;13.47;60.41;102848.81;10375869;28;20045;-79
2022/04/17 09:34:56;;;;;;;6.22;4.30;;;;;;;13.25;60.62;102797.66;10297947;28;20030;-80
2022/04/17 09:40:06;;;;;;;7.70;5.10;;;;;;;13.63;62.77;102844.63;10386664;28;20041;-78
2022/04/17 09:45:07;;;;;;;8.70;5.70;;;;;;;14.23;62.26;102844.00;10324045;28;20046;-79
2022/04/17 09:50:08;;;;;;;7.80;5.10;;;;;;;14.50;58.22;102833.44;10313031;28;20042;-77
2022/04/17 09:55:09;;;;;;;9.40;4.55;;;;;;;14.49;58.28;102833.66;10310846;28;20045;-80
2022/04/17 10:00:16;;;;;;;7.20;3.90;;;;;;;14.78;57.23;102812.66;10310660;28;20042;-78
2022/04/17 10:05:18;;;;;;;6.38;4.60;;;;;;;15.11;55.77;102805.72;10310147;28;20039;-81
2022/04/17 10:10:18;;;;;;;6.72;4.35;;;;;;;15.21;53.23;102794.06;10309526;28;20162;-79
2022/04/17 10:15:19;;;;;;;7.88;4.50;;;;;;;15.51;53.20;102789.25;10309502;28;20467;-80
2022/04/17 10:20:19;;;;;;;7.00;4.18;;;;;;;15.28;49.01;102761.50;10309852;28;20054;-79
2022/04/17 10:25:22;;;;;;;6.65;4.32;;;;;;;15.56;50.75;102773.81;10311040;28;20826;-80
2022/04/17 10:30:57;;;;;;;10.07;4.05;;;;;;;15.89;53.09;102779.59;10293748;28;20027;-80
2022/04/17 10:36:08;;;;;;;7.60;5.05;;;;;;;15.94;47.19;102732.50;10310292;28;20074;-80
2022/04/17 10:41:09;;;;;;;5.55;3.72;;;;;;;16.00;46.80;102730.69;10348807;28;20030;-79
2022/04/17 10:46:11;;;;;;;5.97;3.80;;;;;;;15.92;46.41;102729.13;10318437;28;20030;-80
2022/04/17 10:51:32;;;;;;;8.98;4.45;;;;;;;16.47;49.45;102747.16;10323659;28;20114;-80
2022/04/17 10:56:39;;;;;;;5.65;3.60;;;;;;;16.94;48.69;102735.00;10384564;28;20054;-79
2022/04/17 11:01:42;;;;;;;7.05;4.18;;;;;;;17.28;47.38;102724.72;10382219;28;20045;-78
2022/04/17 11:06:43;;;;;;;5.32;4.00;;;;;;;17.40;46.03;102716.22;10384309;28;20038;-81
2022/04/17 11:11:43;;;;;;;6.13;4.13;;;;;;;17.67;45.77;102704.34;10371197;28;20129;-80
2022/04/17 11:16:53;;;;;;;6.18;4.05;;;;;;;17.92;44.44;102693.59;10386744;28;20081;-79
2022/04/17 11:21:56;;;;;;;7.38;4.50;;;;;;;18.24;44.56;102701.19;10388407;28;20517;-80
2022/04/17 11:26:56;;;;;;;6.60;4.65;;;;;;;17.81;41.30;102677.81;10382338;28;20092;-79
2022/04/17 11:31:57;;;;;;;7.63;4.38;;;;;;;17.87;41.29;102654.50;10388207;28;20048;-79
2022/04/17 11:37:02;;;;;;;7.32;4.43;;;;;;;18.17;42.57;102674.63;10387744;28;20034;-79
2022/04/17 11:42:04;;;;;;;6.20;3.88;;;;;;;18.30;41.19;102652.75;10378422;28;20046;-80
2022/04/17 11:47:06;;;;;;;5.97;3.55;;;;;;;18.58;42.58;102658.31;10387313;28;20037;-81
2022/04/17 11:52:28;;;;;;;6.63;3.80;;;;;;;18.89;41.42;102629.59;10386541;28;20406;-80
2022/04/17 11:57:28;;;;;;;5.13;3.80;;;;;;;19.19;39.78;102635.66;10367586;28;20065;-81
2022/04/17 12:02:29;;;;;;;4.22;3.47;;;;;;;19.63;37.20;102621.34;10383289;28;20026;-79
2022/04/17 12:07:29;;;;;;;6.07;3.90;;;;;;;20.41;36.08;102604.50;10387386;28;20050;-83
2022/04/17 12:12:34;;;;;;;4.43;3.60;;;;;;;21.22;37.01;102615.91;10382104;28;20675;-82
2022/04/17 12:17:34;;;;;;;5.75;3.92;;;;;;;21.69;35.50;102589.41;10387915;28;20045;-84
2022/04/17 12:22:36;;;;;;;5.20;3.58;;;;;;;22.09;34.88;102593.09;10388290;28;20466;-85
2022/04/17 12:27:36;;;;;;;6.13;4.22;;;;;;;21.90;34.22;102585.34;10388247;28;20089;-84
2022/04/17 12:32:46;;;;;;;6.70;3.78;;;;;;;21.93;34.14;102570.78;10361561;28;20035;-84
2022/04/17 12:37:47;;;;;;;4.38;3.30;;;;;;;22.10;34.25;102577.97;10322698;28;20035;-84
2022/04/17 12:42:48;;;;;;;4.93;3.20;;;;;;;22.89;33.03;102569.41;10322988;28;20038;-82
2022/04/17 12:48:06;;;;;;;5.90;2.90;;;;;;;23.39;32.89;102553.13;10330343;28;20094;-83
2022/04/17 12:53:06;;;;;;;4.18;2.85;;;;;;;23.48;30.45;102528.84;10347274;28;20082;-86
2022/04/17 12:58:07;;;;;;;4.38;2.25;;;;;;;23.59;31.42;102528.69;10349868;28;20064;-83
2022/04/17 13:03:11;;;;;;;4.68;2.40;;;;;;;23.29;29.94;102511.09;10366349;28;20033;-80
2022/04/17 13:08:12;;;;;;;3.10;2.63;;;;;;;23.91;30.95;102517.53;10386446;28;20049;-81
2022/04/17 13:13:13;;;;;;;4.38;2.45;;;;;;;24.17;30.88;102514.31;10347826;28;20078;-80
2022/04/17 13:18:22;;;;;;;4.53;2.47;;;;;;;24.34;29.19;102479.97;10345766;28;20042;-79
2022/04/17 13:23:23;;;;;;;4.38;3.25;;;;;;;24.49;31.59;102490.09;10313690;28;20117;-90
2022/04/17 13:28:23;;;;;;;4.22;3.28;;;;;;;24.35;29.45;102471.22;10346263;28;20031;-79
2022/04/17 13:33:24;;;;;;;2.80;2.13;;;;;;;24.47;30.35;102467.03;10346921;28;20062;-83
2022/04/17 13:38:24;;;;;;;4.68;2.70;;;;;;;24.42;29.40;102464.34;10340248;28;20487;-80
2022/04/17 13:43:25;;;;;;;4.47;3.03;;;;;;;24.62;28.94;102447.09;10326826;28;20138;-79
2022/04/17 13:48:25;;;;;;;5.32;3.10;;;;;;;24.79;29.85;102457.72;10311639;28;20050;-77
2022/04/17 13:53:26;;;;;;;3.50;2.53;;;;;;;24.71;28.89;102438.75;10313812;28;20031;-81
2022/04/17 13:58:26;;;;;;;4.43;2.85;;;;;;;25.16;28.34;102422.81;10296577;28;20034;-81
2022/04/17 14:03:27;;;;;;;5.25;3.17;;;;;;;25.65;28.92;102423.09;10296493;28;20571;-83
2022/04/17 14:08:28;;;;;;;3.60;2.58;;;;;;;25.23;29.43;102432.88;10278118;28;20066;-78
2022/04/17 14:13:28;;;;;;;3.42;2.78;;;;;;;25.37;29.63;102419.56;10308428;28;20390;-83
2022/04/17 14:18:29;;;;;;;4.25;1.90;;;;;;;24.71;28.09;102404.94;10310506;28;20034;-82
2022/04/17 14:23:29;;;;;;;3.83;2.60;;;;;;;24.87;28.24;102391.38;10311173;28;20054;-81
2022/04/17 14:28:30;;;;;;;4.13;2.60;;;;;;;25.41;28.37;102398.03;10311507;28;20031;-80
2022/04/17 14:33:30;;;;;;;3.10;2.20;;;;;;;24.94;28.31;102377.69;10324670;28;20043;-81
2022/04/17 14:38:30;;;;;;;3.63;2.28;;;;;;;24.47;27.92;102369.34;10309947;28;20035;-87
2022/04/17 14:43:35;;;;;;;3.92;1.92;;;;;;;25.11;27.46;102369.38;10314924;28;20026;-85
2022/04/17 14:48:35;;;;;;;3.47;2.10;;;;;;;25.39;26.75;102358.06;10348163;28;20096;-83
2022/04/17 14:53:35;;;;;;;4.63;2.22;;;;;;;25.87;26.87;102351.72;10361195;28;20022;-89
2022/04/17 14:58:36;;;;;;;2.47;2.10;;;;;;;25.87;27.34;102340.44;10369612;28;20119;-90
2022/04/17 15:03:36;;;;;;;2.90;1.70;;;;;;;26.12;25.71;102329.66;10388646;28;20026;-93
2022/04/17 15:08:37;;;;;;;3.15;2.00;;;;;;;26.58;24.16;102311.38;10387865;28;20640;-87
2022/04/17 15:13:39;;;;;;;2.97;1.95;;;;;;;26.65;25.90;102325.88;10325490;28;20070;-80
2022/04/17 15:18:39;;;;;;;6.45;2.00;;;;;;;26.82;25.52;102312.94;10308034;28;20070;-81
2022/04/17 15:23:40;;;;;;;2.92;1.80;;;;;;;26.49;24.22;102304.88;10309012;28;20041;-75
2022/04/17 15:28:40;;;;;;;4.00;2.00;;;;;;;25.96;24.44;102293.41;10308162;28;20031;-76
2022/04/17 15:33:42;;;;;;;3.72;2.13;;;;;;;26.74;25.39;102306.09;10308522;28;20039;-80
2022/04/17 15:38:45;;;;;;;5.38;2.13;;;;;;;26.59;24.43;102286.81;10308056;28;20045;-80
2022/04/17 15:49:05;;;;;;;1.60;1.30;;;;;;;26.82;23.80;102296.81;10354659;28;20096;-87
2022/04/17 15:54:06;;;;;;;2.78;1.48;;;;;;;26.87;23.45;102281.66;10386948;28;20037;-83
2022/04/17 15:59:08;;;;;;;2.53;1.85;;;;;;;26.60;23.04;102268.69;10388123;28;20042;-84
2022/04/17 16:04:08;;;;;;;3.03;1.33;;;;;;;26.60;23.64;102254.56;10386409;28;20037;-85
2022/04/17 16:09:09;;;;;;;4.22;2.03;;;;;;;25.65;23.58;102197.47;10382432;28;20046;-85
2022/04/17 16:14:09;;;;;;;4.53;1.60;;;;;;;26.35;24.15;102251.34;10369527;28;20052;-88
2022/04/17 16:19:13;;;;;;;6.20;2.05;;;;;;;26.08;23.65;102261.72;10388332;28;20030;-86
2022/04/17 16:24:14;;;;;;;2.90;1.83;;;;;;;25.55;23.00;102255.00;10388855;28;20061;-84
2022/04/17 16:29:15;;;;;;;1.85;1.40;;;;;;;25.81;24.14;102251.47;10388862;28;20034;-85
2022/04/17 16:34:15;;;;;;;2.53;1.52;;;;;;;25.73;24.61;102207.97;10310128;28;20038;-87
2022/04/17 16:39:16;;;;;;;3.50;2.20;;;;;;;26.06;23.42;102226.53;10377562;28;20037;-82
2022/04/17 16:44:18;;;;;;;3.90;2.28;;;;;;;25.78;25.27;102246.50;10385024;28;20030;-87
2022/04/17 16:49:18;;;;;;;3.78;2.35;;;;;;;25.46;26.52;102251.28;10386480;28;20045;-84
2022/04/17 16:54:20;;;;;;;4.75;2.35;;;;;;;23.53;27.12;102242.03;10386067;28;20069;-83
2022/04/17 16:59:22;;;;;;;6.85;2.40;;;;;;;21.20;29.45;102235.28;10386399;28;20026;-82
2022/04/17 17:04:23;;;;;;;3.92;2.83;;;;;;;19.74;31.08;102207.59;10384459;28;20348;-85
2022/04/17 17:09:23;;;;;;;4.75;2.95;;;;;;;19.42;32.37;102260.97;10365757;28;20502;-82
2022/04/17 17:14:23;;;;;;;5.65;2.92;;;;;;;18.59;34.97;102259.19;10390214;28;20038;-86
2022/04/17 17:19:24;;;;;;;3.65;2.20;;;;;;;18.47;34.50;102244.66;10392240;28;20049;-82
2022/04/17 17:24:24;;;;;;;4.25;2.33;;;;;;;17.91;35.81;102250.84;10387675;28;20048;-84
2022/04/17 17:29:25;;;;;;;6.65;2.35;;;;;;;17.12;37.71;102228.28;10347659;28;20081;-84
2022/04/17 17:34:25;;;;;;;4.88;2.75;;;;;;;16.81;38.75;102273.59;10351430;28;20089;-85
2022/04/17 17:39:28;;;;;;;4.90;2.65;;;;;;;16.02;39.52;102272.06;10354536;28;20108;-84
2022/04/17 17:44:32;;;;;;;4.13;1.80;;;;;;;15.21;41.24;102267.75;10359363;28;20504;-84
2022/04/17 17:49:33;;;;;;;2.65;1.80;;;;;;;14.61;41.25;102283.03;10356998;28;20034;-85
2022/04/17 17:54:33;;;;;;;3.58;1.75;;;;;;;14.18;42.26;102281.56;10353532;28;20038;-83
2022/04/17 17:59:36;;;;;;;2.97;1.65;;;;;;;13.83;43.32;102273.31;10350177;28;20043;-82
2022/04/17 18:04:37;;;;;;;5.03;2.28;;;;;;;13.50;45.07;102280.31;10360969;28;20536;-85
2022/04/17 18:14:57;;;;;;;3.22;1.95;;;;;;;12.86;47.10;102296.63;10352393;28;20546;-81
2022/04/17 18:19:58;;;;;;;3.83;2.38;;;;;;;12.51;47.52;102275.22;10364041;28;20133;-83
2022/04/17 18:24:59;;;;;;;3.90;2.55;;;;;;;12.26;47.55;102280.84;10357689;28;20036;-83
2022/04/17 18:30:00;;;;;;;3.15;1.83;;;;;;;12.10;47.41;102287.81;10390303;28;20033;-84
2022/04/17 18:35:00;;;;;;;3.90;1.88;;;;;;;11.83;47.61;102274.28;10391290;28;20413;-83
2022/04/17 18:40:00;;;;;;;2.65;1.85;;;;;;;11.56;46.97;102275.63;10390750;28;20045;-82
2022/04/17 18:45:02;;;;;;;3.00;1.88;;;;;;;11.34;47.32;102272.41;10391680;28;20033;-83
2022/04/17 18:50:03;;;;;;;3.90;2.42;;;;;;;11.24;47.12;102278.44;10374091;28;20033;-82
2022/04/17 18:55:04;;;;;;;10.38;5.55;;;;;;;11.07;46.96;102278.13;10372686;28;20433;-82
2022/04/17 19:00:07;;;;;;;18.85;9.90;;;;;;;10.87;47.58;102278.28;10372461;28;20030;-82
2022/04/17 19:05:08;;;;;;;18.63;8.50;;;;;;;10.70;47.45;102284.31;10388527;28;20033;-83
2022/04/17 19:10:09;;;;;;;11.70;4.63;;;;;;;10.56;48.76;102288.19;10389428;28;20050;-82
2022/04/17 19:15:09;;;;;;;8.27;3.55;;;;;;;10.40;49.02;102277.72;10372793;28;20541;-83
2022/04/17 19:20:11;;;;;;;6.68;2.80;;;;;;;10.24;47.96;102268.84;10389327;28;20034;-83
2022/04/17 19:25:11;;;;;;;5.63;2.90;;;;;;;10.09;48.57;102265.53;10389527;28;20314;-83
2022/04/17 19:30:12;;;;;;;4.55;2.85;;;;;;;9.88;48.80;102259.22;10387888;28;20037;-82
2022/04/17 19:35:15;;;;;;;7.45;3.88;;;;;;;9.89;48.89;102266.41;10370885;28;20411;-83
2022/04/17 19:40:18;;;;;;;8.48;4.32;;;;;;;9.66;48.96;102250.38;10388776;28;20064;-83
2022/04/17 19:45:18;;;;;;;8.57;4.95;;;;;;;9.63;48.38;102256.34;10387769;28;20478;-82
2022/04/17 19:50:19;;;;;;;14.30;4.25;;;;;;;9.64;48.33;102273.66;10371723;28;20097;-83
2022/04/17 19:55:20;;;;;;;6.30;4.50;;;;;;;9.55;48.18;102263.94;10388061;28;20026;-82
2022/04/17 20:00:22;;;;;;;6.85;4.53;;;;;;;9.44;49.18;102260.78;10387810;28;20041;-83
2022/04/17 20:05:23;;;;;;;8.98;5.60;;;;;;;9.34;50.28;102267.75;10387458;28;20099;-82
2022/04/17 20:10:23;;;;;;;10.68;6.22;;;;;;;9.21;51.11;102263.97;10386310;28;20100;-82
2022/04/17 20:15:24;;;;;;;10.50;6.88;;;;;;;9.06;50.10;102255.09;10388665;28;20070;-81
2022/04/17 20:20:24;;;;;;;13.90;7.95;;;;;;;8.82;50.26;102226.31;10388434;28;20037;-82
2022/04/17 20:25:25;;;;;;;13.13;7.80;;;;;;;8.54;50.18;102190.78;10387231;28;20476;-82
2022/04/17 20:30:25;;;;;;;11.35;6.90;;;;;;;8.65;50.04;102226.72;10365637;28;20398;-81
2022/04/17 20:35:26;;;;;;;13.05;7.32;;;;;;;8.63;51.87;102238.97;10313408;28;20039;-81
2022/04/17 20:40:27;;;;;;;13.40;6.75;;;;;;;8.49;52.78;102249.06;10345092;28;20038;-82
2022/04/17 20:50:47;;;;;;;12.25;8.07;;;;;;;8.22;53.79;102242.59;10364504;28;20087;-81
2022/04/17 20:55:51;;;;;;;15.93;9.35;;;;;;;8.15;53.50;102237.09;10353413;28;20050;-83
2022/04/17 21:00:51;;;;;;;16.67;10.05;;;;;;;8.09;53.64;102232.44;10325256;28;20046;-82
2022/04/17 21:05:52;;;;;;;13.75;8.70;;;;;;;7.99;54.17;102226.47;10314287;28;20042;-82
2022/04/17 21:10:53;;;;;;;12.40;7.95;;;;;;;8.00;54.76;102226.28;10312262;28;20109;-82
2022/04/17 21:15:53;;;;;;;12.52;7.65;;;;;;;7.96;54.43;102226.88;10314909;28;20113;-82
2022/04/17 21:20:59;;;;;;;12.23;7.20;;;;;;;7.85;54.82;102228.31;10312075;28;20038;-82
2022/04/17 21:26:00;;;;;;;13.90;7.70;;;;;;;7.78;55.53;102224.69;10311579;28;20031;-83
2022/04/17 21:31:00;;;;;;;14.15;8.30;;;;;;;7.56;56.37;102221.19;10311672;28;20038;-83
2022/04/17 21:36:01;;;;;;;12.10;7.85;;;;;;;7.55;56.76;102242.28;10311599;28;20031;-83
2022/04/17 21:41:01;;;;;;;15.45;8.63;;;;;;;7.18;57.86;102197.75;10312797;28;20047;-89
2022/04/17 21:46:02;;;;;;;15.93;8.73;;;;;;;7.34;57.87;102234.97;10313433;28;20060;-83
2022/04/17 21:51:02;;;;;;;16.27;9.48;;;;;;;7.26;58.37;102232.38;10312331;28;20042;-84
2022/04/17 21:56:03;;;;;;;15.27;9.10;;;;;;;7.13;59.41;102215.81;10326825;28;20031;-82
2022/04/17 22:06:22;;;;;;;16.58;8.35;;;;;;;6.93;60.82;102194.59;10310765;28;20038;-82
2022/04/17 22:11:24;;;;;;;17.90;8.52;;;;;;;6.94;60.74;102223.66;10310625;28;20050;-82
2022/04/17 22:16:24;;;;;;;16.42;8.15;;;;;;;6.87;61.45;102222.78;10310885;28;20089;-83
2022/04/17 22:21:25;;;;;;;15.02;8.35;;;;;;;6.81;61.55;102213.44;10310202;28;20050;-83
2022/04/17 22:26:25;;;;;;;16.38;8.90;;;;;;;6.74;62.40;102219.88;10322745;28;20049;-82
2022/04/17 22:31:25;;;;;;;14.52;8.90;;;;;;;6.63;63.13;102210.31;10351134;28;20038;-82
2022/04/17 22:36:26;;;;;;;13.30;8.70;;;;;;;6.57;63.19;102206.47;10350144;28;20045;-82
2022/04/17 22:41:26;;;;;;;14.15;7.65;;;;;;;6.52;64.44;102213.59;10349370;28;20038;-81
2022/04/17 22:46:27;;;;;;;12.88;7.85;;;;;;;6.46;64.44;102204.25;10310152;28;20364;-82
2022/04/17 22:51:28;;;;;;;13.10;8.13;;;;;;;6.26;64.72;102177.56;10306418;28;20046;-81
2022/04/17 22:56:29;;;;;;;14.45;8.38;;;;;;;6.34;65.21;102206.66;10314736;28;20045;-82
2022/04/17 23:01:29;;;;;;;14.63;8.05;;;;;;;6.17;66.25;102184.16;10343940;28;20046;-82
2022/04/17 23:06:30;;;;;;;16.27;8.25;;;;;;;6.21;67.33;102199.16;10312860;28;20450;-82
2022/04/17 23:11:30;;;;;;;13.82;8.38;;;;;;;6.16;69.04;102195.28;10330721;28;20050;-81
2022/04/17 23:16:31;;;;;;;13.02;7.55;;;;;;;6.01;69.10;102181.66;10309491;28;20459;-82
2022/04/17 23:21:31;;;;;;;13.00;7.05;;;;;;;5.72;70.21;102145.13;10308828;28;20421;-81
2022/04/17 23:26:32;;;;;;;14.77;8.18;;;;;;;5.89;70.77;102181.31;10308505;28;20503;-81
2022/04/17 23:31:32;;;;;;;15.70;9.18;;;;;;;5.88;71.33;102189.69;10316253;28;20084;-82
2022/04/17 23:36:33;;;;;;;15.40;8.13;;;;;;;5.60;72.11;102141.16;10348724;28;20073;-81